sensor_id;sensor_type;location;lat;lon;timestamp;temperature;humidity
13585;DHT22;6863;48.402;9.994;2023-03-09T00:01:52;9.00;99.90
13585;DHT22;6863;48.402;9.994;2023-03-09T00:04:19;9.10;99.90
13585;DHT22;6863;48.402;9.994;2023-03-09T00:06:44;9.10;99.90
13585;DHT22;6863;48.402;9.994;2023-03-09T00:09:12;9.10;99.90
13585;DHT22;6863;48.402;9.994;2023-03-09T00:11:42;9.10;99.90
13585;DHT22;6863;48.402;9.994;2023-03-09T00:14:08;9.10;99.90
13585;DHT22;6863;48.402;9.994;2023-03-09T00:16:36;9.20;99.90
13585;DHT22;6863;48.402;9.994;2023-03-09T00:19:11;9.20;99.90
13585;DHT22;6863;48.402;9.994;2023-03-09T00:21:40;9.20;99.90
13585;DHT22;6863;48.402;9.994;2023-03-09T00:24:14;9.30;99.90
13585;DHT22;6863;48.402;9.994;2023-03-09T00:26:42;9.30;99.90
13585;DHT22;6863;48.402;9.994;2023-03-09T00:29:11;9.30;99.90
13585;DHT22;6863;48.402;9.994;2023-03-09T00:31:37;9.40;99.90
13585;DHT22;6863;48.402;9.994;2023-03-09T00:34:12;9.40;99.90
13585;DHT22;6863;48.402;9.994;2023-03-09T00:36:39;9.40;99.90
13585;DHT22;6863;48.402;9.994;2023-03-09T00:39:24;9.40;99.90
13585;DHT22;6863;48.402;9.994;2023-03-09T00:41:53;9.40;99.90
13585;DHT22;6863;48.402;9.994;2023-03-09T00:44:18;9.40;99.90
13585;DHT22;6863;48.402;9.994;2023-03-09T00:46:47;9.40;99.90
13585;DHT22;6863;48.402;9.994;2023-03-09T00:49:16;9.40;99.90
13585;DHT22;6863;48.402;9.994;2023-03-09T00:51:42;9.50;99.90
13585;DHT22;6863;48.402;9.994;2023-03-09T00:54:09;9.50;99.90
13585;DHT22;6863;48.402;9.994;2023-03-09T00:56:53;9.50;99.90
13585;DHT22;6863;48.402;9.994;2023-03-09T00:59:45;9.60;99.90
13585;DHT22;6863;48.402;9.994;2023-03-09T01:02:14;9.70;99.90
13585;DHT22;6863;48.402;9.994;2023-03-09T01:04:43;9.70;99.90
13585;DHT22;6863;48.402;9.994;2023-03-09T01:07:27;9.60;99.90
13585;DHT22;6863;48.402;9.994;2023-03-09T01:10:09;9.50;99.90
13585;DHT22;6863;48.402;9.994;2023-03-09T01:12:48;9.40;99.90
13585;DHT22;6863;48.402;9.994;2023-03-09T01:15:27;9.40;99.90
13585;DHT22;6863;48.402;9.994;2023-03-09T01:17:53;9.40;99.90
13585;DHT22;6863;48.402;9.994;2023-03-09T01:20:19;9.30;99.90
13585;DHT22;6863;48.402;9.994;2023-03-09T01:22:54;9.40;99.90
13585;DHT22;6863;48.402;9.994;2023-03-09T01:25:24;9.40;99.90
13585;DHT22;6863;48.402;9.994;2023-03-09T01:27:52;9.40;99.90
13585;DHT22;6863;48.402;9.994;2023-03-09T01:30:32;9.50;99.90
13585;DHT22;6863;48.402;9.994;2023-03-09T01:33:03;9.50;99.90
13585;DHT22;6863;48.402;9.994;2023-03-09T01:35:31;9.60;99.90
13585;DHT22;6863;48.402;9.994;2023-03-09T01:38:26;9.60;99.90
13585;DHT22;6863;48.402;9.994;2023-03-09T01:40:52;9.40;99.90
13585;DHT22;6863;48.402;9.994;2023-03-09T01:43:48;8.50;99.90
13585;DHT22;6863;48.402;9.994;2023-03-09T01:52:25;7.60;99.90
13585;DHT22;6863;48.402;9.994;2023-03-09T01:55:11;7.60;99.90
13585;DHT22;6863;48.402;9.994;2023-03-09T01:57:47;7.60;99.90
13585;DHT22;6863;48.402;9.994;2023-03-09T02:00:20;7.60;99.90
13585;DHT22;6863;48.402;9.994;2023-03-09T02:03:00;7.60;99.90
13585;DHT22;6863;48.402;9.994;2023-03-09T02:05:52;7.60;99.90
13585;DHT22;6863;48.402;9.994;2023-03-09T02:08:35;7.60;99.90
13585;DHT22;6863;48.402;9.994;2023-03-09T02:11:05;7.60;99.90
13585;DHT22;6863;48.402;9.994;2023-03-09T02:13:38;7.60;99.90
13585;DHT22;6863;48.402;9.994;2023-03-09T02:16:12;7.50;99.90
13585;DHT22;6863;48.402;9.994;2023-03-09T02:18:38;7.40;99.90
13585;DHT22;6863;48.402;9.994;2023-03-09T02:21:35;7.40;99.90
13585;DHT22;6863;48.402;9.994;2023-03-09T02:24:20;7.30;99.90
13585;DHT22;6863;48.402;9.994;2023-03-09T02:27:00;7.30;99.90
13585;DHT22;6863;48.402;9.994;2023-03-09T02:29:27;7.30;99.90
13585;DHT22;6863;48.402;9.994;2023-03-09T02:31:54;7.30;99.90
13585;DHT22;6863;48.402;9.994;2023-03-09T02:34:23;7.40;99.90
13585;DHT22;6863;48.402;9.994;2023-03-09T02:36:49;7.40;99.90
13585;DHT22;6863;48.402;9.994;2023-03-09T02:39:44;7.40;99.90
13585;DHT22;6863;48.402;9.994;2023-03-09T02:42:26;7.50;99.90
13585;DHT22;6863;48.402;9.994;2023-03-09T02:44:53;7.50;99.90
13585;DHT22;6863;48.402;9.994;2023-03-09T02:47:21;7.50;99.90
13585;DHT22;6863;48.402;9.994;2023-03-09T02:49:47;7.50;99.90
13585;DHT22;6863;48.402;9.994;2023-03-09T02:52:13;7.50;99.90
13585;DHT22;6863;48.402;9.994;2023-03-09T02:54:42;7.60;99.90
13585;DHT22;6863;48.402;9.994;2023-03-09T02:57:08;7.50;99.90
13585;DHT22;6863;48.402;9.994;2023-03-09T02:59:34;7.50;99.90
13585;DHT22;6863;48.402;9.994;2023-03-09T03:02:00;7.60;99.90
13585;DHT22;6863;48.402;9.994;2023-03-09T03:04:28;7.50;99.90
13585;DHT22;6863;48.402;9.994;2023-03-09T03:06:54;7.50;99.90
13585;DHT22;6863;48.402;9.994;2023-03-09T03:09:20;7.50;99.90
13585;DHT22;6863;48.402;9.994;2023-03-09T03:11:46;7.50;99.90
13585;DHT22;6863;48.402;9.994;2023-03-09T03:14:11;7.40;99.90
13585;DHT22;6863;48.402;9.994;2023-03-09T03:16:43;7.40;99.90
13585;DHT22;6863;48.402;9.994;2023-03-09T03:19:08;7.40;99.90
13585;DHT22;6863;48.402;9.994;2023-03-09T03:21:40;7.50;99.90
13585;DHT22;6863;48.402;9.994;2023-03-09T03:24:07;7.50;99.90
13585;DHT22;6863;48.402;9.994;2023-03-09T03:26:39;7.50;99.90
13585;DHT22;6863;48.402;9.994;2023-03-09T03:29:14;7.50;99.90
13585;DHT22;6863;48.402;9.994;2023-03-09T03:31:40;7.40;99.90
13585;DHT22;6863;48.402;9.994;2023-03-09T03:34:06;7.50;99.90
13585;DHT22;6863;48.402;9.994;2023-03-09T03:36:32;7.50;99.90
13585;DHT22;6863;48.402;9.994;2023-03-09T03:38:58;7.50;99.90
13585;DHT22;6863;48.402;9.994;2023-03-09T03:41:25;7.50;99.90
13585;DHT22;6863;48.402;9.994;2023-03-09T03:43:51;7.50;99.90
13585;DHT22;6863;48.402;9.994;2023-03-09T03:46:21;7.50;99.90
13585;DHT22;6863;48.402;9.994;2023-03-09T03:48:46;7.40;99.90
13585;DHT22;6863;48.402;9.994;2023-03-09T03:51:20;7.50;99.90
13585;DHT22;6863;48.402;9.994;2023-03-09T03:54:25;7.50;99.90
13585;DHT22;6863;48.402;9.994;2023-03-09T03:56:52;7.50;99.90
13585;DHT22;6863;48.402;9.994;2023-03-09T03:59:19;7.50;99.90
13585;DHT22;6863;48.402;9.994;2023-03-09T04:01:57;7.60;99.90
13585;DHT22;6863;48.402;9.994;2023-03-09T04:04:31;7.60;99.90
13585;DHT22;6863;48.402;9.994;2023-03-09T04:06:57;7.60;99.90
13585;DHT22;6863;48.402;9.994;2023-03-09T04:09:22;7.60;99.90
13585;DHT22;6863;48.402;9.994;2023-03-09T04:11:50;7.60;99.90
13585;DHT22;6863;48.402;9.994;2023-03-09T04:14:15;7.60;99.90
13585;DHT22;6863;48.402;9.994;2023-03-09T04:16:44;7.60;99.90
13585;DHT22;6863;48.402;9.994;2023-03-09T04:19:16;7.60;99.90
13585;DHT22;6863;48.402;9.994;2023-03-09T04:21:44;7.70;99.90
13585;DHT22;6863;48.402;9.994;2023-03-09T04:24:09;7.70;99.90
13585;DHT22;6863;48.402;9.994;2023-03-09T04:26:36;7.70;99.90
13585;DHT22;6863;48.402;9.994;2023-03-09T04:29:01;7.80;99.90
13585;DHT22;6863;48.402;9.994;2023-03-09T04:31:27;7.80;99.90
13585;DHT22;6863;48.402;9.994;2023-03-09T04:33:56;7.80;99.90
13585;DHT22;6863;48.402;9.994;2023-03-09T04:36:24;7.90;99.90
13585;DHT22;6863;48.402;9.994;2023-03-09T04:38:50;7.90;99.90
13585;DHT22;6863;48.402;9.994;2023-03-09T04:41:19;7.90;99.90
13585;DHT22;6863;48.402;9.994;2023-03-09T04:43:48;7.90;99.90
13585;DHT22;6863;48.402;9.994;2023-03-09T04:46:14;7.80;99.90
13585;DHT22;6863;48.402;9.994;2023-03-09T04:48:40;7.80;99.90
13585;DHT22;6863;48.402;9.994;2023-03-09T04:51:05;7.90;99.90
13585;DHT22;6863;48.402;9.994;2023-03-09T04:53:32;7.80;99.90
13585;DHT22;6863;48.402;9.994;2023-03-09T04:56:01;7.90;99.90
13585;DHT22;6863;48.402;9.994;2023-03-09T04:58:26;7.90;99.90
13585;DHT22;6863;48.402;9.994;2023-03-09T05:00:52;8.00;99.90
13585;DHT22;6863;48.402;9.994;2023-03-09T05:03:46;8.00;99.90
13585;DHT22;6863;48.402;9.994;2023-03-09T05:06:32;8.10;99.90
13585;DHT22;6863;48.402;9.994;2023-03-09T05:09:02;8.10;99.90
13585;DHT22;6863;48.402;9.994;2023-03-09T05:11:32;8.20;99.90
13585;DHT22;6863;48.402;9.994;2023-03-09T05:13:59;8.20;99.90
13585;DHT22;6863;48.402;9.994;2023-03-09T05:16:25;8.20;99.90
13585;DHT22;6863;48.402;9.994;2023-03-09T05:18:51;8.20;99.90
13585;DHT22;6863;48.402;9.994;2023-03-09T05:21:17;8.20;99.90
13585;DHT22;6863;48.402;9.994;2023-03-09T05:23:44;8.20;99.90
13585;DHT22;6863;48.402;9.994;2023-03-09T05:26:10;8.20;99.90
13585;DHT22;6863;48.402;9.994;2023-03-09T05:28:37;8.20;99.90
13585;DHT22;6863;48.402;9.994;2023-03-09T05:31:08;8.20;99.90
13585;DHT22;6863;48.402;9.994;2023-03-09T05:33:35;8.20;99.90
13585;DHT22;6863;48.402;9.994;2023-03-09T05:36:13;8.10;99.90
13585;DHT22;6863;48.402;9.994;2023-03-09T05:38:42;8.20;99.90
13585;DHT22;6863;48.402;9.994;2023-03-09T05:41:10;8.20;99.90
13585;DHT22;6863;48.402;9.994;2023-03-09T05:43:36;8.20;99.90
13585;DHT22;6863;48.402;9.994;2023-03-09T05:46:07;8.20;99.90
13585;DHT22;6863;48.402;9.994;2023-03-09T05:48:36;8.20;99.90
13585;DHT22;6863;48.402;9.994;2023-03-09T05:51:07;8.20;99.90
13585;DHT22;6863;48.402;9.994;2023-03-09T05:53:43;8.20;99.90
13585;DHT22;6863;48.402;9.994;2023-03-09T05:56:10;8.20;99.90
13585;DHT22;6863;48.402;9.994;2023-03-09T05:58:39;8.20;99.90
13585;DHT22;6863;48.402;9.994;2023-03-09T06:01:17;8.20;99.90
13585;DHT22;6863;48.402;9.994;2023-03-09T06:03:53;8.20;99.90
13585;DHT22;6863;48.402;9.994;2023-03-09T06:06:19;8.30;99.90
13585;DHT22;6863;48.402;9.994;2023-03-09T06:08:45;8.30;99.90
13585;DHT22;6863;48.402;9.994;2023-03-09T06:11:12;8.30;99.90
13585;DHT22;6863;48.402;9.994;2023-03-09T06:13:38;8.30;99.90
13585;DHT22;6863;48.402;9.994;2023-03-09T06:16:24;8.30;99.90
13585;DHT22;6863;48.402;9.994;2023-03-09T06:19:02;8.40;99.90
13585;DHT22;6863;48.402;9.994;2023-03-09T06:21:27;8.40;99.90
13585;DHT22;6863;48.402;9.994;2023-03-09T06:23:55;8.50;99.90
13585;DHT22;6863;48.402;9.994;2023-03-09T06:26:21;8.50;99.90
13585;DHT22;6863;48.402;9.994;2023-03-09T06:28:47;8.40;99.90
13585;DHT22;6863;48.402;9.994;2023-03-09T06:31:14;8.40;99.90
13585;DHT22;6863;48.402;9.994;2023-03-09T06:33:45;8.40;99.90
13585;DHT22;6863;48.402;9.994;2023-03-09T06:36:30;8.40;99.90
13585;DHT22;6863;48.402;9.994;2023-03-09T06:38:58;8.40;99.90
13585;DHT22;6863;48.402;9.994;2023-03-09T06:41:24;8.40;99.90
13585;DHT22;6863;48.402;9.994;2023-03-09T06:43:57;8.40;99.90
13585;DHT22;6863;48.402;9.994;2023-03-09T06:46:23;8.40;99.90
13585;DHT22;6863;48.402;9.994;2023-03-09T06:48:48;8.50;99.90
13585;DHT22;6863;48.402;9.994;2023-03-09T06:51:14;8.60;99.90
13585;DHT22;6863;48.402;9.994;2023-03-09T06:53:39;8.80;99.90
13585;DHT22;6863;48.402;9.994;2023-03-09T06:56:05;8.90;99.90
13585;DHT22;6863;48.402;9.994;2023-03-09T06:58:31;9.10;99.90
13585;DHT22;6863;48.402;9.994;2023-03-09T07:00:58;9.20;99.90
13585;DHT22;6863;48.402;9.994;2023-03-09T07:03:30;9.30;99.90
13585;DHT22;6863;48.402;9.994;2023-03-09T07:05:58;9.30;99.90
13585;DHT22;6863;48.402;9.994;2023-03-09T07:08:24;9.20;99.90
13585;DHT22;6863;48.402;9.994;2023-03-09T07:10:53;9.30;99.90
13585;DHT22;6863;48.402;9.994;2023-03-09T07:13:18;9.20;99.90
13585;DHT22;6863;48.402;9.994;2023-03-09T07:15:47;9.20;99.90
13585;DHT22;6863;48.402;9.994;2023-03-09T07:18:13;9.20;99.90
13585;DHT22;6863;48.402;9.994;2023-03-09T07:20:40;9.30;99.90
13585;DHT22;6863;48.402;9.994;2023-03-09T07:23:06;9.40;99.90
13585;DHT22;6863;48.402;9.994;2023-03-09T07:25:32;9.30;99.90
13585;DHT22;6863;48.402;9.994;2023-03-09T07:28:00;9.40;99.90
13585;DHT22;6863;48.402;9.994;2023-03-09T07:30:27;9.30;99.90
13585;DHT22;6863;48.402;9.994;2023-03-09T07:32:55;9.30;99.90
13585;DHT22;6863;48.402;9.994;2023-03-09T07:35:21;9.10;99.90
13585;DHT22;6863;48.402;9.994;2023-03-09T07:37:46;9.10;99.90
13585;DHT22;6863;48.402;9.994;2023-03-09T07:40:12;9.00;99.90
13585;DHT22;6863;48.402;9.994;2023-03-09T07:42:38;9.00;99.90
13585;DHT22;6863;48.402;9.994;2023-03-09T07:45:05;9.00;99.90
13585;DHT22;6863;48.402;9.994;2023-03-09T07:47:34;8.90;99.90
13585;DHT22;6863;48.402;9.994;2023-03-09T07:50:00;8.90;99.90
13585;DHT22;6863;48.402;9.994;2023-03-09T07:52:26;8.80;99.90
13585;DHT22;6863;48.402;9.994;2023-03-09T07:54:59;8.80;99.90
13585;DHT22;6863;48.402;9.994;2023-03-09T07:57:31;8.80;99.90
13585;DHT22;6863;48.402;9.994;2023-03-09T07:59:57;8.90;99.90
13585;DHT22;6863;48.402;9.994;2023-03-09T08:02:26;8.90;99.90
13585;DHT22;6863;48.402;9.994;2023-03-09T08:04:51;9.00;99.90
13585;DHT22;6863;48.402;9.994;2023-03-09T08:07:20;9.20;99.90
13585;DHT22;6863;48.402;9.994;2023-03-09T08:09:46;9.40;99.90
13585;DHT22;6863;48.402;9.994;2023-03-09T08:12:12;9.50;99.90
13585;DHT22;6863;48.402;9.994;2023-03-09T08:14:38;9.50;99.90
13585;DHT22;6863;48.402;9.994;2023-03-09T08:17:04;9.50;99.90
13585;DHT22;6863;48.402;9.994;2023-03-09T08:19:30;9.50;99.90
13585;DHT22;6863;48.402;9.994;2023-03-09T08:21:56;9.50;99.90
13585;DHT22;6863;48.402;9.994;2023-03-09T08:24:22;9.70;99.90
13585;DHT22;6863;48.402;9.994;2023-03-09T08:26:48;10.20;99.90
13585;DHT22;6863;48.402;9.994;2023-03-09T08:29:14;10.70;99.90
13585;DHT22;6863;48.402;9.994;2023-03-09T08:31:42;11.30;99.90
13585;DHT22;6863;48.402;9.994;2023-03-09T08:34:08;11.70;99.90
13585;DHT22;6863;48.402;9.994;2023-03-09T08:36:34;11.70;99.90
13585;DHT22;6863;48.402;9.994;2023-03-09T08:38:59;11.80;99.90
13585;DHT22;6863;48.402;9.994;2023-03-09T08:41:26;12.30;99.90
13585;DHT22;6863;48.402;9.994;2023-03-09T08:43:51;12.60;99.50
13585;DHT22;6863;48.402;9.994;2023-03-09T08:46:17;13.00;98.50
13585;DHT22;6863;48.402;9.994;2023-03-09T08:48:43;12.70;98.40
13585;DHT22;6863;48.402;9.994;2023-03-09T08:51:12;13.10;98.60
13585;DHT22;6863;48.402;9.994;2023-03-09T08:53:38;13.80;97.30
13585;DHT22;6863;48.402;9.994;2023-03-09T08:56:07;14.50;96.10
13585;DHT22;6863;48.402;9.994;2023-03-09T08:58:34;15.30;93.80
13585;DHT22;6863;48.402;9.994;2023-03-09T09:01:07;15.70;92.50
13585;DHT22;6863;48.402;9.994;2023-03-09T09:03:34;15.60;91.90
13585;DHT22;6863;48.402;9.994;2023-03-09T09:06:10;14.90;92.80
13585;DHT22;6863;48.402;9.994;2023-03-09T09:08:36;14.80;93.10
13585;DHT22;6863;48.402;9.994;2023-03-09T09:11:20;15.80;91.70
13585;DHT22;6863;48.402;9.994;2023-03-09T09:13:46;16.30;90.60
13585;DHT22;6863;48.402;9.994;2023-03-09T09:16:13;16.40;88.90
13585;DHT22;6863;48.402;9.994;2023-03-09T09:18:39;16.10;88.90
13585;DHT22;6863;48.402;9.994;2023-03-09T09:21:08;15.70;90.10
13585;DHT22;6863;48.402;9.994;2023-03-09T09:23:41;15.00;90.50
13585;DHT22;6863;48.402;9.994;2023-03-09T09:26:08;14.70;90.70
13585;DHT22;6863;48.402;9.994;2023-03-09T09:28:34;14.30;91.70
13585;DHT22;6863;48.402;9.994;2023-03-09T09:31:02;13.10;92.90
13585;DHT22;6863;48.402;9.994;2023-03-09T09:33:30;12.70;94.20
13585;DHT22;6863;48.402;9.994;2023-03-09T09:36:07;12.60;94.80
13585;DHT22;6863;48.402;9.994;2023-03-09T09:38:35;13.20;94.60
13585;DHT22;6863;48.402;9.994;2023-03-09T09:44:16;15.70;91.70
13585;DHT22;6863;48.402;9.994;2023-03-09T09:46:42;16.00;88.10
13585;DHT22;6863;48.402;9.994;2023-03-09T09:58:02;18.60;71.10
13585;DHT22;6863;48.402;9.994;2023-03-09T10:00:52;18.00;70.00
13585;DHT22;6863;48.402;9.994;2023-03-09T10:03:44;17.10;72.00
13585;DHT22;6863;48.402;9.994;2023-03-09T10:06:19;15.80;74.90
13585;DHT22;6863;48.402;9.994;2023-03-09T10:08:52;15.60;78.20
13585;DHT22;6863;48.402;9.994;2023-03-09T10:11:43;16.90;73.60
13585;DHT22;6863;48.402;9.994;2023-03-09T10:14:31;16.70;71.70
13585;DHT22;6863;48.402;9.994;2023-03-09T10:17:31;18.20;66.30
13585;DHT22;6863;48.402;9.994;2023-03-09T10:20:24;19.80;60.00
13585;DHT22;6863;48.402;9.994;2023-03-09T10:22:54;20.00;58.80
13585;DHT22;6863;48.402;9.994;2023-03-09T10:25:22;21.50;55.00
13585;DHT22;6863;48.402;9.994;2023-03-09T10:27:57;20.20;54.90
13585;DHT22;6863;48.402;9.994;2023-03-09T10:30:35;21.20;54.80
13585;DHT22;6863;48.402;9.994;2023-03-09T10:35:42;19.20;53.90
13585;DHT22;6863;48.402;9.994;2023-03-09T10:38:18;18.20;56.10
13585;DHT22;6863;48.402;9.994;2023-03-09T10:40:54;19.50;55.40
13585;DHT22;6863;48.402;9.994;2023-03-09T10:43:32;18.80;55.50
13585;DHT22;6863;48.402;9.994;2023-03-09T10:46:24;19.70;54.50
13585;DHT22;6863;48.402;9.994;2023-03-09T10:49:09;19.30;54.10
13585;DHT22;6863;48.402;9.994;2023-03-09T10:51:44;18.20;56.40
13585;DHT22;6863;48.402;9.994;2023-03-09T10:54:24;18.20;57.00
13585;DHT22;6863;48.402;9.994;2023-03-09T10:56:52;17.70;57.30
13585;DHT22;6863;48.402;9.994;2023-03-09T10:59:23;16.80;57.70
13585;DHT22;6863;48.402;9.994;2023-03-09T11:01:52;16.20;60.00
13585;DHT22;6863;48.402;9.994;2023-03-09T11:06:49;15.50;63.20
13585;DHT22;6863;48.402;9.994;2023-03-09T11:09:29;15.20;63.00
13585;DHT22;6863;48.402;9.994;2023-03-09T11:12:10;15.60;61.60
13585;DHT22;6863;48.402;9.994;2023-03-09T11:14:46;15.80;61.10
13585;DHT22;6863;48.402;9.994;2023-03-09T11:20:18;16.80;58.70
13585;DHT22;6863;48.402;9.994;2023-03-09T11:22:47;17.00;57.60
13585;DHT22;6863;48.402;9.994;2023-03-09T11:25:17;16.60;57.40
13585;DHT22;6863;48.402;9.994;2023-03-09T11:27:53;16.30;57.60
13585;DHT22;6863;48.402;9.994;2023-03-09T11:30:22;17.10;56.90
13585;DHT22;6863;48.402;9.994;2023-03-09T11:32:53;16.30;57.20
13585;DHT22;6863;48.402;9.994;2023-03-09T11:35:25;16.90;56.90
13585;DHT22;6863;48.402;9.994;2023-03-09T11:38:01;16.80;56.30
13585;DHT22;6863;48.402;9.994;2023-03-09T11:40:29;17.40;55.90
13585;DHT22;6863;48.402;9.994;2023-03-09T11:43:22;18.10;54.70
13585;DHT22;6863;48.402;9.994;2023-03-09T11:45:46;18.70;53.00
13585;DHT22;6863;48.402;9.994;2023-03-09T11:48:23;20.00;50.50
13585;DHT22;6863;48.402;9.994;2023-03-09T11:53:52;21.70;46.50
13585;DHT22;6863;48.402;9.994;2023-03-09T11:56:28;21.80;44.50
13585;DHT22;6863;48.402;9.994;2023-03-09T12:01:38;20.10;46.00
13585;DHT22;6863;48.402;9.994;2023-03-09T12:04:07;19.90;47.20
13585;DHT22;6863;48.402;9.994;2023-03-09T12:06:35;18.40;48.10
13585;DHT22;6863;48.402;9.994;2023-03-09T12:09:09;17.00;51.10
13585;DHT22;6863;48.402;9.994;2023-03-09T12:11:52;16.00;53.00
13585;DHT22;6863;48.402;9.994;2023-03-09T12:14:29;15.70;54.20
13585;DHT22;6863;48.402;9.994;2023-03-09T12:17:00;15.50;55.00
13585;DHT22;6863;48.402;9.994;2023-03-09T12:19:29;15.40;55.60
13585;DHT22;6863;48.402;9.994;2023-03-09T12:22:18;14.80;56.20
13585;DHT22;6863;48.402;9.994;2023-03-09T12:24:59;14.40;57.60
13585;DHT22;6863;48.402;9.994;2023-03-09T12:27:28;14.30;58.20
13585;DHT22;6863;48.402;9.994;2023-03-09T12:30:09;14.20;58.90
13585;DHT22;6863;48.402;9.994;2023-03-09T12:32:40;14.30;59.70
13585;DHT22;6863;48.402;9.994;2023-03-09T12:40:40;14.70;58.40
13585;DHT22;6863;48.402;9.994;2023-03-09T12:45:46;15.10;58.60
13585;DHT22;6863;48.402;9.994;2023-03-09T12:48:23;15.50;58.70
13585;DHT22;6863;48.402;9.994;2023-03-09T12:50:59;15.70;58.50
13585;DHT22;6863;48.402;9.994;2023-03-09T12:53:28;15.80;58.80
13585;DHT22;6863;48.402;9.994;2023-03-09T12:56:33;15.40;60.80
13585;DHT22;6863;48.402;9.994;2023-03-09T12:58:52;15.00;63.30
13585;DHT22;6863;48.402;9.994;2023-03-09T13:06:53;13.80;68.30
13585;DHT22;6863;48.402;9.994;2023-03-09T13:22:03;13.70;69.20
13585;DHT22;6863;48.402;9.994;2023-03-09T13:27:20;13.40;72.20
13585;DHT22;6863;48.402;9.994;2023-03-09T13:29:55;13.50;72.60
13585;DHT22;6863;48.402;9.994;2023-03-09T13:32:47;13.30;73.20
13585;DHT22;6863;48.402;9.994;2023-03-09T13:35:22;13.30;74.40
13585;DHT22;6863;48.402;9.994;2023-03-09T13:37:50;13.50;74.20
13585;DHT22;6863;48.402;9.994;2023-03-09T13:40:34;13.50;74.70
13585;DHT22;6863;48.402;9.994;2023-03-09T13:43:18;13.60;74.80
13585;DHT22;6863;48.402;9.994;2023-03-09T13:46:01;13.80;72.40
13585;DHT22;6863;48.402;9.994;2023-03-09T13:48:28;14.20;70.90
13585;DHT22;6863;48.402;9.994;2023-03-09T13:50:54;14.50;69.60
13585;DHT22;6863;48.402;9.994;2023-03-09T13:53:28;14.70;68.40
13585;DHT22;6863;48.402;9.994;2023-03-09T13:56:05;14.70;68.20
13585;DHT22;6863;48.402;9.994;2023-03-09T13:58:38;14.60;66.80
13585;DHT22;6863;48.402;9.994;2023-03-09T14:01:05;14.70;66.50
13585;DHT22;6863;48.402;9.994;2023-03-09T14:03:33;14.80;66.60
13585;DHT22;6863;48.402;9.994;2023-03-09T14:06:01;14.80;66.60
13585;DHT22;6863;48.402;9.994;2023-03-09T14:08:33;14.80;67.30
13585;DHT22;6863;48.402;9.994;2023-03-09T14:11:05;15.30;66.40
13585;DHT22;6863;48.402;9.994;2023-03-09T14:13:31;16.00;63.10
13585;DHT22;6863;48.402;9.994;2023-03-09T14:15:58;16.70;61.10
13585;DHT22;6863;48.402;9.994;2023-03-09T14:18:37;16.50;61.30
13585;DHT22;6863;48.402;9.994;2023-03-09T14:21:05;16.40;61.60
13585;DHT22;6863;48.402;9.994;2023-03-09T14:23:43;16.40;60.90
13585;DHT22;6863;48.402;9.994;2023-03-09T14:26:09;15.30;63.00
13585;DHT22;6863;48.402;9.994;2023-03-09T14:28:38;15.70;63.30
13585;DHT22;6863;48.402;9.994;2023-03-09T14:31:20;15.80;62.50
13585;DHT22;6863;48.402;9.994;2023-03-09T14:36:29;14.70;63.30
13585;DHT22;6863;48.402;9.994;2023-03-09T14:39:02;14.40;64.70
13585;DHT22;6863;48.402;9.994;2023-03-09T14:41:36;14.30;64.70
13585;DHT22;6863;48.402;9.994;2023-03-09T14:44:02;14.10;65.40
13585;DHT22;6863;48.402;9.994;2023-03-09T14:46:31;14.00;65.90
13585;DHT22;6863;48.402;9.994;2023-03-09T14:48:58;14.00;65.80
13585;DHT22;6863;48.402;9.994;2023-03-09T14:51:35;13.90;66.40
13585;DHT22;6863;48.402;9.994;2023-03-09T14:56:28;13.60;67.10
13585;DHT22;6863;48.402;9.994;2023-03-09T14:58:54;13.50;67.60
13585;DHT22;6863;48.402;9.994;2023-03-09T15:01:20;13.50;68.40
13585;DHT22;6863;48.402;9.994;2023-03-09T15:03:47;13.40;68.60
13585;DHT22;6863;48.402;9.994;2023-03-09T15:06:13;13.40;68.60
13585;DHT22;6863;48.402;9.994;2023-03-09T15:08:38;13.30;69.20
13585;DHT22;6863;48.402;9.994;2023-03-09T15:11:04;13.40;69.00
13585;DHT22;6863;48.402;9.994;2023-03-09T15:13:31;13.40;68.50
13585;DHT22;6863;48.402;9.994;2023-03-09T15:15:58;13.50;68.20
13585;DHT22;6863;48.402;9.994;2023-03-09T15:18:23;13.60;68.10
13585;DHT22;6863;48.402;9.994;2023-03-09T15:20:49;13.50;67.10
13585;DHT22;6863;48.402;9.994;2023-03-09T15:23:15;13.60;67.00
13585;DHT22;6863;48.402;9.994;2023-03-09T15:25:41;13.60;67.40
13585;DHT22;6863;48.402;9.994;2023-03-09T15:28:08;13.50;67.70
13585;DHT22;6863;48.402;9.994;2023-03-09T15:30:34;13.60;67.70
13585;DHT22;6863;48.402;9.994;2023-03-09T15:33:00;14.40;66.40
13585;DHT22;6863;48.402;9.994;2023-03-09T15:35:26;15.50;63.40
13585;DHT22;6863;48.402;9.994;2023-03-09T15:37:51;15.60;61.90
13585;DHT22;6863;48.402;9.994;2023-03-09T15:40:17;15.50;61.90
13585;DHT22;6863;48.402;9.994;2023-03-09T15:42:43;16.00;61.50
13585;DHT22;6863;48.402;9.994;2023-03-09T15:45:12;15.80;60.20
13585;DHT22;6863;48.402;9.994;2023-03-09T15:47:38;15.00;61.90
13585;DHT22;6863;48.402;9.994;2023-03-09T15:50:05;14.30;63.50
13585;DHT22;6863;48.402;9.994;2023-03-09T15:52:36;14.60;64.50
13585;DHT22;6863;48.402;9.994;2023-03-09T15:55:04;14.80;63.30
13585;DHT22;6863;48.402;9.994;2023-03-09T15:57:30;14.80;63.40
13585;DHT22;6863;48.402;9.994;2023-03-09T15:59:56;15.20;62.00
13585;DHT22;6863;48.402;9.994;2023-03-09T16:02:22;15.50;61.60
13585;DHT22;6863;48.402;9.994;2023-03-09T16:04:48;15.30;61.20
13585;DHT22;6863;48.402;9.994;2023-03-09T16:07:14;14.80;62.20
13585;DHT22;6863;48.402;9.994;2023-03-09T16:09:40;14.10;63.80
13585;DHT22;6863;48.402;9.994;2023-03-09T16:12:06;13.80;65.00
13585;DHT22;6863;48.402;9.994;2023-03-09T16:14:32;13.60;66.10
13585;DHT22;6863;48.402;9.994;2023-03-09T16:16:58;13.70;66.30
13585;DHT22;6863;48.402;9.994;2023-03-09T16:19:23;13.90;66.70
13585;DHT22;6863;48.402;9.994;2023-03-09T16:21:49;14.20;65.50
13585;DHT22;6863;48.402;9.994;2023-03-09T16:24:14;13.90;65.30
13585;DHT22;6863;48.402;9.994;2023-03-09T16:26:40;13.90;65.60
13585;DHT22;6863;48.402;9.994;2023-03-09T16:29:09;13.50;66.10
13585;DHT22;6863;48.402;9.994;2023-03-09T16:31:35;13.50;66.90
13585;DHT22;6863;48.402;9.994;2023-03-09T16:34:00;13.60;66.90
13585;DHT22;6863;48.402;9.994;2023-03-09T16:36:27;13.70;65.50
13585;DHT22;6863;48.402;9.994;2023-03-09T16:38:54;13.50;65.60
13585;DHT22;6863;48.402;9.994;2023-03-09T16:41:23;13.40;66.00
13585;DHT22;6863;48.402;9.994;2023-03-09T16:43:49;13.40;66.50
13585;DHT22;6863;48.402;9.994;2023-03-09T16:46:20;13.20;65.90
13585;DHT22;6863;48.402;9.994;2023-03-09T16:48:49;13.10;65.80
13585;DHT22;6863;48.402;9.994;2023-03-09T16:51:18;12.80;65.70
13585;DHT22;6863;48.402;9.994;2023-03-09T16:53:44;12.70;66.40
13585;DHT22;6863;48.402;9.994;2023-03-09T16:56:10;12.50;66.70
13585;DHT22;6863;48.402;9.994;2023-03-09T16:58:36;12.30;66.60
13585;DHT22;6863;48.402;9.994;2023-03-09T17:01:10;12.20;66.90
13585;DHT22;6863;48.402;9.994;2023-03-09T17:03:36;12.10;67.50
13585;DHT22;6863;48.402;9.994;2023-03-09T17:06:02;12.00;67.60
13585;DHT22;6863;48.402;9.994;2023-03-09T17:08:27;11.90;67.90
13585;DHT22;6863;48.402;9.994;2023-03-09T17:10:57;11.80;68.50
13585;DHT22;6863;48.402;9.994;2023-03-09T17:13:26;11.70;69.00
13585;DHT22;6863;48.402;9.994;2023-03-09T17:15:59;11.60;69.40
13585;DHT22;6863;48.402;9.994;2023-03-09T17:18:25;11.50;70.00
13585;DHT22;6863;48.402;9.994;2023-03-09T17:20:53;11.30;70.50
13585;DHT22;6863;48.402;9.994;2023-03-09T17:23:19;11.30;71.70